createdAt,value
2023-02-21T00:02:45.161Z,2.88
2023-02-21T00:05:31.554Z,2.78
2023-02-21T00:08:17.378Z,2.83
2023-02-21T00:11:03.697Z,3.33
2023-02-21T00:13:49.622Z,3.10
2023-02-21T00:16:36.852Z,3.15
2023-02-21T00:19:24.729Z,2.85
2023-02-21T00:22:11.672Z,2.92
2023-02-21T00:24:57.383Z,3.25
2023-02-21T00:27:44.890Z,3.28
2023-02-21T00:30:31.819Z,2.92
2023-02-21T00:33:17.442Z,3.10
2023-02-21T00:36:02.628Z,2.90
2023-02-21T00:38:47.638Z,3.05
2023-02-21T00:41:33.081Z,3.22
2023-02-21T00:44:18.096Z,2.95
2023-02-21T00:47:03.228Z,3.90
2023-02-21T00:49:48.459Z,3.03
2023-02-21T00:52:33.853Z,3.35
2023-02-21T00:55:19.069Z,2.40
2023-02-21T00:58:04.118Z,3.03
2023-02-21T01:00:49.624Z,2.83
2023-02-21T01:03:34.715Z,3.33
2023-02-21T01:06:20.016Z,3.42
2023-02-21T01:09:06.211Z,3.42
2023-02-21T01:11:52.431Z,3.42
2023-02-21T01:14:37.740Z,3.75
2023-02-21T01:17:22.870Z,3.15
2023-02-21T01:20:08.233Z,3.50
2023-02-21T01:22:53.947Z,3.50
2023-02-21T01:25:39.204Z,3.15
2023-02-21T01:28:25.497Z,3.10
2023-02-21T01:31:10.592Z,3.25
2023-02-21T01:34:00.228Z,3.60
2023-02-21T01:36:46.046Z,3.53
2023-02-21T01:39:32.415Z,3.60
2023-02-21T01:42:18.069Z,3.47
2023-02-21T01:45:06.924Z,3.47
2023-02-21T01:47:52.759Z,3.17
2023-02-21T01:50:45.660Z,3.53
2023-02-21T01:53:43.464Z,3.55
2023-02-21T01:56:30.352Z,3.00
2023-02-21T01:59:19.582Z,3.50
2023-02-21T02:02:12.357Z,3.63
2023-02-21T02:04:58.492Z,3.70
2023-02-21T02:07:44.366Z,3.40
2023-02-21T02:10:32.015Z,3.40
2023-02-21T02:13:46.411Z,3.22
2023-02-21T02:16:52.962Z,3.55
2023-02-21T02:19:58.525Z,3.45
2023-02-21T02:22:58.003Z,3.95
2023-02-21T02:26:05.617Z,3.67
2023-02-21T02:28:53.942Z,4.07
2023-02-21T02:31:48.864Z,4.35
2023-02-21T02:34:52.173Z,3.30
2023-02-21T02:37:46.971Z,3.33
2023-02-21T02:40:34.810Z,3.60
2023-02-21T02:43:17.176Z,3.45
2023-02-21T02:45:56.823Z,4.30
2023-02-21T02:49:02.372Z,3.67
2023-02-21T02:51:30.182Z,3.70
2023-02-21T02:53:56.972Z,3.58
2023-02-21T02:56:23.779Z,3.75
2023-02-21T02:59:16.571Z,3.58
2023-02-21T03:02:00.030Z,4.05
2023-02-21T03:05:18.381Z,3.63
2023-02-21T03:08:08.872Z,3.67
2023-02-21T03:10:48.950Z,4.35
2023-02-21T03:13:39.883Z,4.10
2023-02-21T03:16:34.084Z,3.60
2023-02-21T03:19:21.170Z,3.33
2023-02-21T03:22:02.259Z,3.50
2023-02-21T03:24:29.709Z,4.15
2023-02-21T03:27:00.681Z,3.95
2023-02-21T03:29:27.680Z,3.60
2023-02-21T03:32:13.169Z,4.28
2023-02-21T03:34:42.677Z,3.92
2023-02-21T03:37:33.077Z,3.85
2023-02-21T03:40:00.996Z,4.72
2023-02-21T03:42:27.844Z,3.97
2023-02-21T03:44:54.651Z,4.13
2023-02-21T03:47:21.707Z,4.13
2023-02-21T03:49:48.533Z,3.85
2023-02-21T03:52:15.346Z,4.20
2023-02-21T03:54:42.322Z,4.20
2023-02-21T03:57:09.164Z,3.70
2023-02-21T03:59:35.955Z,4.00
2023-02-21T04:02:02.823Z,3.92
2023-02-21T04:04:29.702Z,4.35
2023-02-21T04:06:56.500Z,4.32
2023-02-21T04:09:23.405Z,4.97
2023-02-21T04:11:50.207Z,4.28
2023-02-21T04:14:16.981Z,4.15
2023-02-21T04:16:43.748Z,4.32
2023-02-21T04:19:10.565Z,4.30
2023-02-21T04:21:37.466Z,4.25
2023-02-21T04:24:04.665Z,4.10
2023-02-21T04:26:31.659Z,4.63
2023-02-21T04:28:58.437Z,4.65
2023-02-21T04:31:25.250Z,4.25
2023-02-21T04:34:02.485Z,4.40
2023-02-21T04:36:33.012Z,4.20
2023-02-21T04:38:59.941Z,3.92
2023-02-21T04:41:26.721Z,4.07
2023-02-21T04:43:53.843Z,4.80
2023-02-21T04:46:20.868Z,4.63
2023-02-21T04:48:50.603Z,4.35
2023-02-21T04:51:21.508Z,5.05
2023-02-21T04:53:49.872Z,4.60
2023-02-21T04:56:21.003Z,4.60
2023-02-21T04:58:48.712Z,5.10
2023-02-21T05:01:18.126Z,4.20
2023-02-21T05:03:45.943Z,3.90
2023-02-21T05:06:24.909Z,5.00
2023-02-21T05:08:51.726Z,4.65
2023-02-21T05:11:20.666Z,4.53
2023-02-21T05:13:47.857Z,4.57
2023-02-21T05:16:14.940Z,4.38
2023-02-21T05:18:43.485Z,4.60
2023-02-21T05:21:10.474Z,6.13
2023-02-21T05:23:40.453Z,7.93
2023-02-21T05:26:11.202Z,5.18
2023-02-21T05:28:40.056Z,6.80
2023-02-21T05:31:07.956Z,5.60
2023-02-21T05:33:34.992Z,5.13
2023-02-21T05:36:02.040Z,4.80
2023-02-21T05:38:28.833Z,5.47
2023-02-21T05:40:55.652Z,4.72
2023-02-21T05:43:22.637Z,4.85
2023-02-21T05:45:49.479Z,5.45
2023-02-21T05:48:16.464Z,5.40
2023-02-21T05:50:44.927Z,5.28
2023-02-21T05:53:11.873Z,5.53
2023-02-21T05:55:38.723Z,7.03
2023-02-21T05:58:05.605Z,5.90
2023-02-21T06:00:32.525Z,5.22
2023-02-21T06:02:59.734Z,5.35
2023-02-21T06:05:26.744Z,5.47
2023-02-21T06:07:53.614Z,5.35
2023-02-21T06:10:20.593Z,6.22
2023-02-21T06:12:47.669Z,5.00
2023-02-21T06:15:15.424Z,5.50
2023-02-21T06:17:44.051Z,5.72
2023-02-21T06:20:16.603Z,6.10
2023-02-21T06:22:44.233Z,5.55
2023-02-21T06:25:11.475Z,5.28
2023-02-21T06:27:38.583Z,5.88
2023-02-21T06:30:06.524Z,5.75
2023-02-21T06:32:34.715Z,6.00
2023-02-21T06:35:02.343Z,6.20
2023-02-21T06:37:29.585Z,5.20
2023-02-21T06:39:57.498Z,5.45
2023-02-21T06:42:26.195Z,5.03
2023-02-21T06:44:53.470Z,5.40
2023-02-21T06:47:21.100Z,5.75
2023-02-21T06:49:49.181Z,5.32
2023-02-21T06:52:16.997Z,5.40
2023-02-21T06:54:45.965Z,5.40
2023-02-21T06:57:13.565Z,5.18
2023-02-21T06:59:41.856Z,5.82
2023-02-21T07:02:20.466Z,5.65
2023-02-21T07:04:48.214Z,6.45
2023-02-21T07:07:16.093Z,5.70
2023-02-21T07:09:43.367Z,5.43
2023-02-21T07:12:11.509Z,5.63
2023-02-21T07:14:38.677Z,6.05
2023-02-21T07:17:06.161Z,5.75
2023-02-21T07:19:34.000Z,5.30
2023-02-21T07:22:00.906Z,4.97
2023-02-21T07:24:28.058Z,5.47
2023-02-21T07:26:56.609Z,5.50
2023-02-21T07:29:24.912Z,5.40
2023-02-21T07:31:52.937Z,5.65
2023-02-21T07:34:22.746Z,5.63
2023-02-21T07:36:51.416Z,5.18
2023-02-21T07:39:19.580Z,5.75
2023-02-21T07:41:46.496Z,5.50
2023-02-21T07:44:13.333Z,5.28
2023-02-21T07:46:42.875Z,5.68
2023-02-21T07:49:11.270Z,6.07
2023-02-21T07:51:38.178Z,5.97
2023-02-21T07:54:06.061Z,5.18
2023-02-21T07:56:33.181Z,6.03
2023-02-21T07:59:00.946Z,6.10
2023-02-21T08:01:28.958Z,5.95
2023-02-21T08:03:56.786Z,6.22
2023-02-21T08:06:24.571Z,6.05
2023-02-21T08:08:51.408Z,5.78
2023-02-21T08:11:18.543Z,5.57
2023-02-21T08:13:46.019Z,5.90
2023-02-21T08:16:14.427Z,6.18
2023-02-21T08:18:43.297Z,6.13
2023-02-21T08:21:12.292Z,6.63
2023-02-21T08:23:39.885Z,6.32
2023-02-21T08:26:07.451Z,6.18
2023-02-21T08:28:34.992Z,6.63
2023-02-21T08:31:02.964Z,6.72
2023-02-21T08:33:31.575Z,6.20
2023-02-21T08:35:58.668Z,6.82
2023-02-21T08:38:25.548Z,6.35
2023-02-21T08:40:57.178Z,6.35
2023-02-21T08:43:26.532Z,6.00
2023-02-21T08:45:54.592Z,5.90
2023-02-21T08:48:23.350Z,6.35
2023-02-21T08:50:53.707Z,6.25
2023-02-21T08:53:21.218Z,5.75
2023-02-21T08:55:48.649Z,5.75
2023-02-21T08:58:15.804Z,6.00
2023-02-21T09:00:42.790Z,6.07
2023-02-21T09:03:09.813Z,5.85
2023-02-21T09:05:36.621Z,5.68
2023-02-21T09:08:05.218Z,5.95
2023-02-21T09:10:36.323Z,5.90
2023-02-21T09:13:04.158Z,6.25
2023-02-21T09:15:31.885Z,6.55
2023-02-21T09:18:00.983Z,5.90
2023-02-21T09:20:28.320Z,7.20
2023-02-21T09:22:57.243Z,6.78
2023-02-21T09:25:27.811Z,7.18
2023-02-21T09:27:56.085Z,6.85
2023-02-21T09:30:27.158Z,6.70
2023-02-21T09:32:55.324Z,7.70
2023-02-21T09:35:24.842Z,6.95
2023-02-21T09:37:51.734Z,8.07
2023-02-21T09:40:42.680Z,5.60
2023-02-21T09:43:33.209Z,5.15
2023-02-21T09:46:07.612Z,5.20
2023-02-21T09:48:35.072Z,6.70
2023-02-21T09:51:08.302Z,5.80
2023-02-21T09:53:43.777Z,5.95
2023-02-21T09:56:38.077Z,5.57
2023-02-21T09:59:15.074Z,5.05
2023-02-21T10:02:18.998Z,5.45
2023-02-21T10:05:01.944Z,4.85
2023-02-21T10:07:43.793Z,4.93
2023-02-21T10:10:15.745Z,7.95
2023-02-21T10:12:56.355Z,4.88
2023-02-21T10:15:55.544Z,6.40
2023-02-21T10:19:10.365Z,6.30
2023-02-21T10:21:49.154Z,7.45
2023-02-21T10:24:25.077Z,4.63
2023-02-21T10:27:13.183Z,4.20
2023-02-21T10:30:12.713Z,4.68
2023-02-21T10:32:39.803Z,4.30
2023-02-21T10:35:07.375Z,4.72
2023-02-21T10:37:51.825Z,5.00
2023-02-21T10:40:38.738Z,3.88
2023-02-21T10:43:41.597Z,4.13
2023-02-21T10:46:27.250Z,3.90
2023-02-21T10:49:04.722Z,3.88
2023-02-21T10:51:35.342Z,4.22
2023-02-21T10:54:25.041Z,4.13
2023-02-21T10:56:55.223Z,4.00
2023-02-21T10:59:41.090Z,4.65
2023-02-21T11:02:36.039Z,4.40
2023-02-21T11:05:20.742Z,4.90
2023-02-21T11:08:07.851Z,3.85
2023-02-21T11:10:44.756Z,4.20
2023-02-21T11:13:22.687Z,4.00
2023-02-21T11:16:09.384Z,4.35
2023-02-21T11:18:37.514Z,3.92
2023-02-21T11:21:12.292Z,3.78
2023-02-21T11:23:49.969Z,4.35
2023-02-21T11:26:17.319Z,4.32
2023-02-21T11:28:45.897Z,3.95
2023-02-21T11:31:33.210Z,4.40
2023-02-21T11:34:05.126Z,3.90
2023-02-21T11:36:36.956Z,4.15
2023-02-21T11:39:37.856Z,4.60
2023-02-21T11:42:29.763Z,4.55
2023-02-21T11:45:22.655Z,4.25
2023-02-21T11:48:06.728Z,3.90
2023-02-21T11:50:49.811Z,3.88
2023-02-21T11:53:32.429Z,4.22
2023-02-21T11:56:38.628Z,4.55
2023-02-21T11:59:44.198Z,4.65
2023-02-21T12:02:45.133Z,4.72
2023-02-21T12:05:31.076Z,4.53
2023-02-21T12:08:49.907Z,4.20
2023-02-21T12:11:49.658Z,4.05
2023-02-21T12:14:35.973Z,4.57
2023-02-21T12:17:32.454Z,4.55
2023-02-21T12:20:36.470Z,4.95
2023-02-21T12:23:07.448Z,4.93
2023-02-21T12:26:08.121Z,4.28
2023-02-21T12:28:50.833Z,5.00
2023-02-21T12:31:29.839Z,4.88
2023-02-21T12:34:38.538Z,4.57
2023-02-21T12:37:22.880Z,5.10
2023-02-21T12:40:27.543Z,3.75
2023-02-21T12:43:22.796Z,4.78
2023-02-21T12:46:50.718Z,4.18
2023-02-21T12:50:09.580Z,3.70
2023-02-21T12:53:03.514Z,3.10
2023-02-21T12:56:08.720Z,3.30
2023-02-21T12:58:47.804Z,3.50
2023-02-21T13:01:23.437Z,3.03
2023-02-21T13:03:59.612Z,3.22
2023-02-21T13:06:31.656Z,3.17
2023-02-21T13:09:36.375Z,3.08
2023-02-21T13:12:31.978Z,3.28
2023-02-21T13:15:29.693Z,3.03
2023-02-21T13:18:20.427Z,2.92
2023-02-21T13:21:00.616Z,3.17
2023-02-21T13:24:06.246Z,2.80
2023-02-21T13:27:02.160Z,3.13
2023-02-21T13:29:35.868Z,3.28
2023-02-21T13:32:22.013Z,3.42
2023-02-21T13:35:03.340Z,2.53
2023-02-21T13:37:34.335Z,2.60
2023-02-21T13:40:16.824Z,2.15
2023-02-21T13:42:44.339Z,2.80
2023-02-21T13:45:16.769Z,2.75
2023-02-21T13:48:02.032Z,2.70
2023-02-21T13:50:38.280Z,2.42
2023-02-21T13:53:22.319Z,2.65
2023-02-21T13:56:18.792Z,2.60
2023-02-21T13:58:48.784Z,2.60
2023-02-21T14:01:42.524Z,2.38
2023-02-21T14:04:59.001Z,2.55
2023-02-21T14:07:48.897Z,2.50
2023-02-21T14:10:27.136Z,2.83
2023-02-21T14:12:58.359Z,2.33
2023-02-21T14:15:38.195Z,2.42
2023-02-21T14:18:07.745Z,2.60
2023-02-21T14:20:37.673Z,2.90
2023-02-21T14:23:06.587Z,3.30
2023-02-21T14:25:36.465Z,3.50
2023-02-21T14:28:58.363Z,3.65
2023-02-21T14:32:10.274Z,2.80
2023-02-21T14:34:50.181Z,3.67
2023-02-21T14:37:45.207Z,3.60
2023-02-21T14:40:34.143Z,3.78
2023-02-21T14:43:32.928Z,3.80
2023-02-21T14:46:33.112Z,2.78
2023-02-21T14:49:18.042Z,2.47
2023-02-21T14:52:25.654Z,2.50
2023-02-21T14:55:30.557Z,3.55
2023-02-21T14:58:21.274Z,3.50
2023-02-21T15:01:07.192Z,2.80
2023-02-21T15:04:15.200Z,4.45
2023-02-21T15:06:56.173Z,3.50
2023-02-21T15:09:23.105Z,3.05
2023-02-21T15:11:51.956Z,3.42
2023-02-21T15:14:29.289Z,3.22
2023-02-21T15:17:22.842Z,2.97
2023-02-21T15:22:30.133Z,3.17
2023-02-21T15:25:20.556Z,9.52
2023-02-21T15:27:51.164Z,2.88
2023-02-21T15:30:19.772Z,3.88
2023-02-21T15:33:16.698Z,2.95
2023-02-21T15:36:00.816Z,4.70
2023-02-21T15:38:36.170Z,2.53
2023-02-21T15:41:16.268Z,2.75
2023-02-21T15:44:08.703Z,2.53
2023-02-21T15:46:49.351Z,2.70
2023-02-21T15:49:27.962Z,2.47
2023-02-21T15:51:54.991Z,2.90
2023-02-21T15:54:29.876Z,5.35
2023-02-21T15:57:24.260Z,5.40
2023-02-21T16:00:27.320Z,5.50
2023-02-21T16:03:41.171Z,6.97
2023-02-21T16:06:28.802Z,5.07
2023-02-21T16:09:02.242Z,3.50
2023-02-21T16:11:45.834Z,2.90
2023-02-21T16:14:20.889Z,6.93
2023-02-21T16:16:53.831Z,6.00
2023-02-21T16:19:23.763Z,4.63
2023-02-21T16:21:51.714Z,7.70
2023-02-21T16:24:32.619Z,17.65
2023-02-21T16:27:07.591Z,4.75
2023-02-21T16:29:35.518Z,3.38
2023-02-21T16:32:03.339Z,2.60
2023-02-21T16:34:34.350Z,3.17
2023-02-21T16:37:09.876Z,3.97
2023-02-21T16:39:37.184Z,3.40
2023-02-21T16:42:04.992Z,3.78
2023-02-21T16:44:32.032Z,4.15
2023-02-21T16:47:00.950Z,3.15
2023-02-21T16:49:28.538Z,3.33
2023-02-21T16:51:55.802Z,3.72
2023-02-21T16:54:23.574Z,3.90
2023-02-21T16:56:53.560Z,4.30
2023-02-21T16:59:23.487Z,3.95
2023-02-21T17:01:51.534Z,4.28
2023-02-21T17:04:26.363Z,4.15
2023-02-21T17:07:03.964Z,3.95
2023-02-21T17:09:39.077Z,5.38
2023-02-21T17:12:08.148Z,4.82
2023-02-21T17:14:35.312Z,4.55
2023-02-21T17:17:03.010Z,4.25
2023-02-21T17:19:30.279Z,4.28
2023-02-21T17:21:58.746Z,4.82
2023-02-21T17:24:26.047Z,4.68
2023-02-21T17:26:54.631Z,5.80
2023-02-21T17:29:22.593Z,5.20
2023-02-21T17:31:54.926Z,6.65
2023-02-21T17:34:23.424Z,6.47
2023-02-21T17:36:52.369Z,6.65
2023-02-21T17:39:21.826Z,4.35
2023-02-21T17:41:52.154Z,3.90
2023-02-21T17:44:20.060Z,3.88
2023-02-21T17:46:56.655Z,5.35
2023-02-21T17:49:27.265Z,5.28
2023-02-21T17:51:55.145Z,5.70
2023-02-21T17:54:24.845Z,20.45
2023-02-21T17:56:52.277Z,17.10
2023-02-21T17:59:19.953Z,24.85
2023-02-21T18:01:47.130Z,15.55
2023-02-21T18:04:15.561Z,13.10
2023-02-21T18:06:44.634Z,13.45
2023-02-21T18:09:11.531Z,9.07
2023-02-21T18:11:39.480Z,5.60
2023-02-21T18:14:07.175Z,6.25
2023-02-21T18:16:35.075Z,5.30
2023-02-21T18:19:02.998Z,5.18
2023-02-21T18:21:30.799Z,6.57
2023-02-21T18:23:57.749Z,8.82
2023-02-21T18:26:25.765Z,8.50
2023-02-21T18:28:52.685Z,8.10
2023-02-21T18:31:20.647Z,9.00
2023-02-21T18:33:49.992Z,9.90
2023-02-21T18:36:17.452Z,8.68
2023-02-21T18:38:44.373Z,8.30
2023-02-21T18:41:18.379Z,10.48
2023-02-21T18:43:46.215Z,8.80
2023-02-21T18:46:19.163Z,6.57
2023-02-21T18:48:50.377Z,7.53
2023-02-21T18:51:20.029Z,6.55
2023-02-21T18:53:49.885Z,6.95
2023-02-21T18:56:20.386Z,6.68
2023-02-21T18:58:49.834Z,6.82
2023-02-21T19:01:21.073Z,7.47
2023-02-21T19:03:51.529Z,8.00
2023-02-21T19:06:21.094Z,5.78
2023-02-21T19:08:50.441Z,5.30
2023-02-21T19:11:18.407Z,6.85
2023-02-21T19:13:47.451Z,10.40
2023-02-21T19:16:14.987Z,10.77
2023-02-21T19:18:43.090Z,10.00
2023-02-21T19:21:14.911Z,11.60
2023-02-21T19:23:42.721Z,11.70
2023-02-21T19:26:10.837Z,11.88
2023-02-21T19:28:40.703Z,13.45
2023-02-21T19:31:14.847Z,14.63
2023-02-21T19:33:44.606Z,11.75
2023-02-21T19:36:13.515Z,11.05
2023-02-21T19:38:41.171Z,14.20
2023-02-21T19:41:09.302Z,16.27
2023-02-21T19:43:37.088Z,16.67
2023-02-21T19:46:06.218Z,15.82
2023-02-21T19:48:33.742Z,14.00
2023-02-21T19:51:01.918Z,12.90
2023-02-21T19:53:29.966Z,10.18
2023-02-21T19:55:56.980Z,10.70
2023-02-21T19:58:24.700Z,11.63
2023-02-21T20:00:52.746Z,22.08
2023-02-21T20:03:21.376Z,29.80
2023-02-21T20:05:49.573Z,27.23
2023-02-21T20:08:17.479Z,18.13
2023-02-21T20:10:45.158Z,40.90
2023-02-21T20:13:12.108Z,21.65
2023-02-21T20:15:38.926Z,21.40
2023-02-21T20:18:06.706Z,23.60
2023-02-21T20:20:33.699Z,25.90
2023-02-21T20:23:02.084Z,17.60
2023-02-21T20:25:29.929Z,15.18
2023-02-21T20:27:57.183Z,16.25
2023-02-21T20:30:25.041Z,14.55
2023-02-21T20:32:52.192Z,14.55
2023-02-21T20:35:19.249Z,16.63
2023-02-21T20:37:47.492Z,13.85
2023-02-21T20:40:16.708Z,15.63
2023-02-21T20:42:44.132Z,14.85
2023-02-21T20:45:12.435Z,11.23
2023-02-21T20:47:40.129Z,11.88
2023-02-21T20:50:07.696Z,8.73
2023-02-21T20:52:37.170Z,7.47
2023-02-21T20:55:04.557Z,7.63
2023-02-21T20:57:31.388Z,8.98
2023-02-21T21:00:01.391Z,8.60
2023-02-21T21:02:28.203Z,9.52
2023-02-21T21:04:57.110Z,8.35
2023-02-21T21:07:25.142Z,6.65
2023-02-21T21:09:52.075Z,7.45
2023-02-21T21:12:25.525Z,7.10
2023-02-21T21:14:55.507Z,6.70
2023-02-21T21:17:22.522Z,6.57
2023-02-21T21:19:50.066Z,6.70
2023-02-21T21:22:24.249Z,6.75
2023-02-21T21:24:52.274Z,9.23
2023-02-21T21:27:21.597Z,8.35
2023-02-21T21:29:49.152Z,8.30
2023-02-21T21:32:22.983Z,7.93
2023-02-21T21:34:52.974Z,8.52
2023-02-21T21:37:47.038Z,8.60
2023-02-21T21:40:15.958Z,8.02
2023-02-21T21:42:46.071Z,8.10
2023-02-21T21:45:44.282Z,7.85
2023-02-21T21:48:17.591Z,7.63
2023-02-21T21:50:45.425Z,7.72
2023-02-21T21:53:12.356Z,9.60
2023-02-21T21:55:39.225Z,8.85
2023-02-21T21:58:13.885Z,8.27
2023-02-21T22:00:42.223Z,8.10
2023-02-21T22:03:14.363Z,8.30
2023-02-21T22:05:43.413Z,7.00
2023-02-21T22:08:19.572Z,7.00
2023-02-21T22:10:47.074Z,7.32
2023-02-21T22:13:15.280Z,7.10
2023-02-21T22:15:43.919Z,6.07
2023-02-21T22:18:14.307Z,7.18
2023-02-21T22:20:42.856Z,6.40
2023-02-21T22:23:12.105Z,7.18
2023-02-21T22:25:39.917Z,7.20
2023-02-21T22:28:13.031Z,6.32
2023-02-21T22:30:40.856Z,6.05
2023-02-21T22:33:13.526Z,5.80
2023-02-21T22:35:41.447Z,6.63
2023-02-21T22:38:14.233Z,6.47
2023-02-21T22:40:42.570Z,6.10
2023-02-21T22:43:09.986Z,5.63
2023-02-21T22:45:38.412Z,6.07
2023-02-21T22:48:08.338Z,6.93
2023-02-21T22:50:38.197Z,5.07
2023-02-21T22:53:08.977Z,7.95
2023-02-21T22:55:38.091Z,13.63
2023-02-21T22:58:09.557Z,15.95
2023-02-21T23:00:38.313Z,17.83
2023-02-21T23:03:15.558Z,11.80
2023-02-21T23:05:47.624Z,11.85
2023-02-21T23:08:18.202Z,10.75
2023-02-21T23:10:47.624Z,8.68
2023-02-21T23:13:19.807Z,6.97
2023-02-21T23:15:48.113Z,7.13
2023-02-21T23:18:20.535Z,6.05
2023-02-21T23:20:54.138Z,6.30
2023-02-21T23:23:27.068Z,6.00
2023-02-21T23:25:58.947Z,7.22
2023-02-21T23:28:29.418Z,6.43
2023-02-21T23:30:58.012Z,6.60
2023-02-21T23:33:30.481Z,6.53
2023-02-21T23:35:58.091Z,4.73
2023-02-21T23:38:30.716Z,5.82
2023-02-21T23:41:00.588Z,6.75
2023-02-21T23:43:30.839Z,7.32
2023-02-21T23:46:00.512Z,7.45
2023-02-21T23:48:30.380Z,6.50
2023-02-21T23:50:58.339Z,6.05
2023-02-21T23:53:29.116Z,7.32
2023-02-21T23:55:58.138Z,7.28
2023-02-21T23:58:32.067Z,7.07
